Syracuse, NE

1:44 PM CDT on October 23, 2014 (GMT -0500)
NEDOR Syracuse | Change Station
CLOSE
Current Station
Personal Weather Station
Location: Syracuse, NE
Elevation: 1145 ft
Nearby Weather Stations

Elev 1145 ft 40.67 °N, 96.19 °W | Updated 279 days ago

Partly Cloudy
Partly Cloudy
69 °F
Feels Like 69 °F
N
3
Wind Variable Wind from SSW
Gusts mph

Today
High -- | Low -- °F
--% Chance of Precip.
Yesterday
High -- | Low -- °F
Precip. -- in
7:44 AM 6:32 PM
Waning Crescent, 0% visible
Pressure 30.05 in
Visibility 10.0 miles
Clouds Clear
Dew Point 56 °F
Humidity 62%
Rainfall -999.00 in
Snow Depth Not available.
UV 5 out of 12
Pollen .20 out of 12
Air Quality Not available.
Flu Activity Sporadic
METAR KAFK 231835Z AUTO 31006KT 10SM CLR 20/14 A3005 RMK AO2 T01960138

More Conditions Fewer Conditions

Pressure 30.05 in
Visibility 10.0 miles
Clouds Clear
Dew Point 56 °F
Humidity 62%
Rainfall -999.00 in
Snow Depth Not available.
UV 5 out of 12
Pollen .20 out of 12
Air Quality Not available.
Flu Activity Sporadic
METAR KAFK 231835Z AUTO 31006KT 10SM CLR 20/14 A3005 RMK AO2 T01960138

More Conditions Fewer Conditions

10-Day Weather Forecast

Almanac

Astronomy

Oct. 23, 2014 Rise Set
Actual Time 7:44 AM CDT 6:32 PM CDT
Civil Twilight 7:16 AM CDT 7:00 PM CDT
Nautical Twilight 6:44 AM CDT 7:32 PM CDT
Astronomical Twilight 6:13 AM CDT 8:04 PM CDT
Moon 7:25 AM CDT 6:35 PM CDT
Length of Visible Light 11h 43m
Length of Day
10h 48m
Tomorrow will be 2m 30s shorter.
Waning Crescent, 0% of the Moon is Illuminated
Today
Waning Crescent
Oct 23
New
Oct 30
First Quarter
Nov 6
Full
Nov 14
Last Quarter

Today's Extremes

State Highs State Lows

Community

WunderPhotos

Upload Photos

1,764,339 photos uploaded!

WunderBlogs® & News

Nearby

Snow Depth

Station Depth Elevation
No new snow has been reported.

Earthquake Activity

City Distance Mag. Time & Date
No recent earthquake activity has been reported nearby.
Minimum magnitude displayed is 2.5.

Coastal Water Temperatures

Place Temperature
No Stations Reporting

Nearby Weather Stations